USTRANSCOM 7619


PHNL
Daniel K Inouye International Airport
Honolulu, Hawaii, US
KSUU
Travis Air Force Base
Fairfield, California, US

Activity Log

Date Flight Route Aircraft Duration
08/30/2019 CMB819 MKK4 CLUTS R465 CINNY ROVUE OSVEE1 B752 5h 36m
03/27/2019 CMB819 MKK4 CLUTS R465 CINNY ROVUE OSVEE1 B752 4h 33m

Route Details

Aircraft Information
Primary: Boeing 757-200SF
Backup: Not Available
Route Data
Distance: 2117nm
Sched. Duration: 4h 21m
Avg. Duration: 4h 84m (+63m)
Times Flown: 2
Recm'd Route: MKK4 CLUTS R465 CINNY ROVUE OSVEE1
Planned Altitude: 33,000ft
Origin Wx: PHNL 030153Z 05008G19KT 010V070 10SM FEW025 FEW040 30/20 A2997 RMK AO2 SLP149 T03000200
Dest. Wx: KSUU 030158Z AUTO 24012KT 10SM CLR 34/11 A2990 RMK AO2 SLP131 T03350113 $
Notes: USTRANSCOM CONTRACT FLIGHT

Financial History
Total Freight: 85,063lbs
Average Load: 42,532lbs/flt
Fuel Used: 71,758lbs
Avg. Fuel Used: 35,879lbs/flt
Fuel Expense: $49,513
Avg. Fuel Expense: $24,757
Avg. Fuel Cost: $0.69/lbs
Total Gross Income: $135,250
Pilot Pay: $378
Total Expenses: $14,711
Total Revenue: $68,652
Average Revenue: $67,625.09